createdAt,value
2022-12-15T00:02:13.229Z,20.60
2022-12-15T00:04:58.329Z,22.00
2022-12-15T00:07:43.145Z,19.70
2022-12-15T00:10:28.211Z,20.50
2022-12-15T00:13:13.372Z,20.70
2022-12-15T00:15:58.455Z,19.00
2022-12-15T00:18:43.522Z,19.90
2022-12-15T00:21:28.196Z,23.00
2022-12-15T00:24:13.290Z,21.60
2022-12-15T00:26:58.321Z,21.90
2022-12-15T00:29:43.438Z,20.70
2022-12-15T00:32:28.358Z,20.80
2022-12-15T00:35:13.396Z,22.40
2022-12-15T00:37:58.393Z,22.90
2022-12-15T00:40:24.766Z,22.40
2022-12-15T00:42:51.200Z,22.60
2022-12-15T00:45:17.574Z,22.40
2022-12-15T00:47:44.031Z,21.70
2022-12-15T00:50:28.878Z,20.90
2022-12-15T00:53:13.833Z,21.20
2022-12-15T00:55:58.912Z,22.00
2022-12-15T00:58:43.959Z,20.40
2022-12-15T01:01:29.313Z,20.90
2022-12-15T01:04:14.523Z,19.60
2022-12-15T01:06:59.678Z,22.10
2022-12-15T01:09:45.132Z,19.60
2022-12-15T01:12:30.268Z,22.10
2022-12-15T01:15:15.331Z,20.80
2022-12-15T01:18:00.321Z,22.00
2022-12-15T01:20:26.718Z,22.30
2022-12-15T01:22:55.895Z,19.80
2022-12-15T01:25:24.589Z,20.60
2022-12-15T01:27:51.671Z,20.90
2022-12-15T01:30:21.767Z,21.60
2022-12-15T01:32:48.276Z,20.60
2022-12-15T01:35:14.982Z,18.70
2022-12-15T01:37:41.381Z,20.70
2022-12-15T01:40:30.170Z,19.60
2022-12-15T01:42:56.673Z,20.30
2022-12-15T01:45:46.110Z,21.70
2022-12-15T01:48:17.660Z,21.90
2022-12-15T01:50:56.926Z,19.60
2022-12-15T01:53:24.063Z,21.00
2022-12-15T01:55:50.782Z,25.40
2022-12-15T01:58:18.743Z,22.60
2022-12-15T02:00:45.196Z,24.00
2022-12-15T02:03:12.195Z,19.80
2022-12-15T02:05:41.317Z,19.90
2022-12-15T02:08:08.922Z,19.30
2022-12-15T02:11:20.348Z,18.30
2022-12-15T02:13:57.371Z,21.00
2022-12-15T02:16:47.437Z,19.50
2022-12-15T02:19:45.489Z,21.10
2022-12-15T02:22:14.865Z,20.20
2022-12-15T02:25:03.172Z,22.90
2022-12-15T02:28:08.427Z,21.60
2022-12-15T02:31:17.958Z,20.60
2022-12-15T02:33:50.983Z,24.20
2022-12-15T02:36:33.425Z,20.00
2022-12-15T02:38:59.912Z,22.60
2022-12-15T02:41:46.098Z,23.90
2022-12-15T02:44:37.810Z,20.90
2022-12-15T02:47:27.487Z,19.20
2022-12-15T02:50:22.050Z,21.60
2022-12-15T02:52:57.801Z,20.40
2022-12-15T02:55:55.083Z,20.50
2022-12-15T02:58:37.069Z,18.10
2022-12-15T03:01:29.837Z,19.10
2022-12-15T03:03:58.106Z,17.50
2022-12-15T03:06:25.907Z,22.80
2022-12-15T03:08:52.306Z,18.90
2022-12-15T03:11:18.657Z,20.10
2022-12-15T03:13:45.299Z,19.20
2022-12-15T03:16:12.248Z,20.10
2022-12-15T03:18:38.720Z,17.70
2022-12-15T03:21:05.214Z,18.30
2022-12-15T03:23:31.928Z,17.50
2022-12-15T03:25:58.520Z,23.40
2022-12-15T03:28:25.067Z,18.60
2022-12-15T03:30:51.431Z,20.20
2022-12-15T03:33:19.440Z,19.80
2022-12-15T03:35:45.853Z,18.40
2022-12-15T03:38:12.324Z,19.50
2022-12-15T03:40:38.731Z,20.70
2022-12-15T03:43:05.208Z,21.40
2022-12-15T03:45:31.630Z,18.90
2022-12-15T03:47:58.186Z,19.60
2022-12-15T03:50:27.431Z,20.10
2022-12-15T03:53:04.994Z,18.60
2022-12-15T03:55:31.582Z,18.60
2022-12-15T03:57:59.223Z,20.30
2022-12-15T04:00:25.948Z,16.90
2022-12-15T04:02:52.868Z,18.60
2022-12-15T04:05:37.953Z,18.90
2022-12-15T04:08:04.756Z,18.10
2022-12-15T04:10:34.755Z,20.20
2022-12-15T04:13:04.233Z,19.50
2022-12-15T04:15:30.785Z,19.60
2022-12-15T04:17:58.283Z,19.60
2022-12-15T04:20:24.690Z,18.70
2022-12-15T04:22:51.515Z,18.20
2022-12-15T04:25:40.045Z,19.40
2022-12-15T04:28:27.248Z,20.60
2022-12-15T04:31:30.096Z,20.40
2022-12-15T04:34:19.709Z,18.10
2022-12-15T04:37:07.330Z,17.20
2022-12-15T04:39:58.493Z,14.30
2022-12-15T04:42:44.105Z,17.10
2022-12-15T04:45:30.592Z,17.20
2022-12-15T04:48:15.649Z,17.50
2022-12-15T04:51:00.711Z,18.70
2022-12-15T04:53:45.548Z,19.10
2022-12-15T04:56:32.459Z,18.50
2022-12-15T04:59:18.060Z,17.50
2022-12-15T05:02:03.202Z,15.60
2022-12-15T05:04:48.422Z,16.60
2022-12-15T05:07:34.050Z,17.50
2022-12-15T05:10:19.259Z,18.20
2022-12-15T05:13:04.205Z,16.30
2022-12-15T05:15:51.698Z,18.40
2022-12-15T05:18:36.948Z,16.90
2022-12-15T05:21:21.991Z,18.20
2022-12-15T05:24:07.100Z,16.40
2022-12-15T05:26:53.137Z,17.20
2022-12-15T05:29:39.241Z,19.10
2022-12-15T05:32:06.748Z,18.80
2022-12-15T05:34:35.251Z,16.70
2022-12-15T05:37:04.405Z,18.40
2022-12-15T05:39:30.933Z,18.10
2022-12-15T05:41:57.859Z,19.50
2022-12-15T05:44:25.600Z,18.30
2022-12-15T05:46:52.453Z,17.00
2022-12-15T05:49:19.301Z,17.10
2022-12-15T05:51:47.809Z,16.50
2022-12-15T05:54:19.852Z,16.30
2022-12-15T05:56:47.260Z,17.90
2022-12-15T05:59:17.271Z,17.30
2022-12-15T06:01:43.715Z,19.20
2022-12-15T06:04:12.619Z,17.80
2022-12-15T06:06:40.237Z,16.40
2022-12-15T06:09:07.038Z,18.20
2022-12-15T06:11:33.452Z,16.10
2022-12-15T06:13:59.910Z,17.70
2022-12-15T06:16:30.320Z,17.90
2022-12-15T06:18:59.770Z,19.40
2022-12-15T06:21:36.060Z,17.50
2022-12-15T06:24:04.414Z,16.10
2022-12-15T06:26:35.965Z,15.70
2022-12-15T06:29:04.390Z,17.00
2022-12-15T06:31:32.117Z,16.90
2022-12-15T06:34:02.133Z,16.90
2022-12-15T06:36:30.684Z,15.80
2022-12-15T06:39:02.060Z,15.40
2022-12-15T06:41:31.981Z,16.60
2022-12-15T06:44:00.802Z,20.20
2022-12-15T06:46:29.631Z,17.90
2022-12-15T06:48:56.501Z,21.40
2022-12-15T06:51:23.124Z,17.60
2022-12-15T06:53:50.839Z,16.50
2022-12-15T06:56:33.479Z,17.80
2022-12-15T06:59:01.864Z,17.90
2022-12-15T07:01:29.237Z,17.20
2022-12-15T07:03:56.634Z,20.80
2022-12-15T07:06:23.345Z,17.30
2022-12-15T07:08:52.471Z,18.50
2022-12-15T07:11:20.948Z,17.70
2022-12-15T07:13:51.359Z,15.40
2022-12-15T07:16:18.874Z,19.60
2022-12-15T07:18:45.556Z,18.00
2022-12-15T07:21:12.009Z,17.70
2022-12-15T07:23:56.400Z,19.10
2022-12-15T07:26:24.048Z,17.90
2022-12-15T07:28:50.772Z,18.20
2022-12-15T07:31:17.764Z,18.30
2022-12-15T07:33:44.503Z,18.90
2022-12-15T07:36:11.121Z,18.40
2022-12-15T07:38:38.179Z,18.30
2022-12-15T07:41:06.811Z,18.40
2022-12-15T07:43:33.844Z,18.00
2022-12-15T07:46:00.953Z,18.20
2022-12-15T07:48:27.583Z,19.20
2022-12-15T07:51:02.724Z,16.80
2022-12-15T07:53:35.508Z,18.60
2022-12-15T07:56:09.015Z,17.40
2022-12-15T07:58:35.704Z,19.30
2022-12-15T08:01:05.233Z,20.10
2022-12-15T08:03:32.684Z,17.80
2022-12-15T08:06:04.407Z,18.00
2022-12-15T08:08:32.281Z,19.40
2022-12-15T08:10:59.269Z,18.90
2022-12-15T08:14:00.813Z,19.10
2022-12-15T08:16:12.605Z,19.10
2022-12-15T08:18:39.540Z,16.90
2022-12-15T08:21:08.613Z,20.60
2022-12-15T08:23:35.842Z,28.20
2022-12-15T08:26:04.674Z,23.10
2022-12-15T08:28:32.184Z,18.30
2022-12-15T08:31:06.690Z,20.70
2022-12-15T08:33:33.926Z,19.80
2022-12-15T08:36:02.936Z,20.60
2022-12-15T08:38:30.156Z,19.80
2022-12-15T08:40:57.118Z,18.40
2022-12-15T08:43:24.160Z,19.80
2022-12-15T08:45:50.646Z,19.30
2022-12-15T08:48:17.119Z,20.20
2022-12-15T08:50:47.035Z,21.30
2022-12-15T08:53:30.771Z,19.30
2022-12-15T08:56:09.953Z,18.50
2022-12-15T08:58:36.760Z,19.90
2022-12-15T09:01:20.719Z,18.80
2022-12-15T09:03:50.992Z,19.10
2022-12-15T09:06:20.728Z,19.00
2022-12-15T09:08:50.298Z,19.00
2022-12-15T09:11:17.657Z,17.70
2022-12-15T09:13:44.429Z,18.40
2022-12-15T09:16:15.565Z,20.10
2022-12-15T09:18:46.685Z,19.80
2022-12-15T09:21:14.444Z,19.40
2022-12-15T09:23:41.547Z,20.70
2022-12-15T09:26:15.843Z,21.50
2022-12-15T09:28:43.285Z,17.50
2022-12-15T09:31:15.239Z,18.80
2022-12-15T09:33:42.820Z,20.70
2022-12-15T09:36:13.042Z,18.00
2022-12-15T09:38:41.261Z,17.40
2022-12-15T09:41:09.534Z,18.20
2022-12-15T09:43:47.210Z,18.80
2022-12-15T09:46:23.475Z,18.00
2022-12-15T09:48:52.928Z,17.20
2022-12-15T09:51:20.477Z,18.60
2022-12-15T09:53:55.773Z,19.10
2022-12-15T09:56:50.025Z,17.90
2022-12-15T09:59:30.734Z,25.10
2022-12-15T10:02:21.113Z,22.10
2022-12-15T10:04:53.683Z,19.40
2022-12-15T10:07:31.299Z,17.70
2022-12-15T10:09:57.955Z,17.40
2022-12-15T10:12:30.517Z,17.50
2022-12-15T10:15:22.372Z,19.50
2022-12-15T10:17:52.113Z,17.60
2022-12-15T10:20:20.686Z,17.20
2022-12-15T10:22:50.386Z,18.20
2022-12-15T10:25:30.366Z,17.80
2022-12-15T10:28:15.534Z,17.60
2022-12-15T10:31:29.700Z,18.20
2022-12-15T10:34:11.044Z,17.10
2022-12-15T10:36:37.558Z,19.80
2022-12-15T10:39:04.157Z,16.50
2022-12-15T10:41:33.590Z,18.70
2022-12-15T10:44:00.014Z,17.10
2022-12-15T10:46:28.694Z,17.30
2022-12-15T10:49:19.518Z,17.50
2022-12-15T10:51:58.044Z,17.80
2022-12-15T10:54:30.766Z,19.10
2022-12-15T10:56:59.638Z,17.20
2022-12-15T10:59:32.763Z,17.00
2022-12-15T11:02:23.091Z,16.60
2022-12-15T11:05:00.997Z,16.80
2022-12-15T11:07:34.023Z,17.00
2022-12-15T11:10:02.476Z,17.70
2022-12-15T11:12:50.495Z,16.90
2022-12-15T11:15:23.136Z,18.30
2022-12-15T11:17:59.391Z,17.30
2022-12-15T11:20:35.258Z,17.40
2022-12-15T11:23:22.276Z,16.10
2022-12-15T11:25:58.168Z,13.50
2022-12-15T11:28:41.055Z,15.80
2022-12-15T11:31:36.673Z,14.10
2022-12-15T11:34:04.412Z,14.40
2022-12-15T11:37:01.226Z,16.30
2022-12-15T11:39:48.944Z,16.80
2022-12-15T11:42:53.998Z,14.50
2022-12-15T11:45:30.844Z,17.30
2022-12-15T11:48:02.862Z,14.60
2022-12-15T11:50:38.645Z,13.60
2022-12-15T11:53:13.910Z,15.20
2022-12-15T11:55:52.984Z,13.40
2022-12-15T11:58:48.822Z,12.70
2022-12-15T12:01:34.157Z,15.80
2022-12-15T12:04:23.286Z,14.40
2022-12-15T12:07:08.299Z,14.60
2022-12-15T12:10:02.362Z,13.90
2022-12-15T12:12:50.537Z,13.50
2022-12-15T12:15:31.350Z,12.90
2022-12-15T12:18:11.943Z,14.50
2022-12-15T12:21:01.109Z,13.70
2022-12-15T12:23:34.529Z,12.60
2022-12-15T12:26:22.395Z,11.30
2022-12-15T12:29:02.769Z,12.70
2022-12-15T12:31:41.205Z,12.40
2022-12-15T12:34:22.541Z,13.40
2022-12-15T12:36:50.597Z,10.10
2022-12-15T12:39:22.651Z,12.30
2022-12-15T12:41:52.004Z,12.20
2022-12-15T12:44:34.050Z,12.50
2022-12-15T12:47:15.062Z,10.70
2022-12-15T12:49:58.446Z,11.20
2022-12-15T12:52:32.064Z,11.00
2022-12-15T12:55:26.112Z,11.90
2022-12-15T12:57:53.749Z,11.80
2022-12-15T13:00:21.936Z,12.50
2022-12-15T13:02:54.696Z,11.10
2022-12-15T13:05:30.858Z,10.50
2022-12-15T13:08:06.237Z,10.30
2022-12-15T13:10:36.178Z,12.60
2022-12-15T13:13:08.661Z,10.50
2022-12-15T13:15:37.833Z,10.20
2022-12-15T13:18:20.987Z,10.00
2022-12-15T13:20:50.793Z,9.30
2022-12-15T13:23:23.636Z,10.90
2022-12-15T13:28:45.551Z,10.30
2022-12-15T13:31:21.753Z,11.70
2022-12-15T13:33:51.313Z,10.00
2022-12-15T13:36:36.658Z,10.20
2022-12-15T13:39:15.209Z,11.00
2022-12-15T13:42:32.696Z,11.60
2022-12-15T13:44:57.131Z,11.80
2022-12-15T13:47:28.485Z,10.80
2022-12-15T13:50:02.071Z,11.00
2022-12-15T13:53:16.418Z,10.50
2022-12-15T13:55:28.757Z,10.80
2022-12-15T13:58:23.055Z,10.80
2022-12-15T14:00:58.083Z,11.00
2022-12-15T14:03:25.931Z,11.30
2022-12-15T14:05:58.771Z,12.20
2022-12-15T14:08:28.347Z,12.80
2022-12-15T14:10:57.779Z,12.30
2022-12-15T14:13:25.283Z,10.70
2022-12-15T14:16:07.390Z,12.10
2022-12-15T14:18:36.458Z,12.50
2022-12-15T14:21:20.906Z,10.80
2022-12-15T14:24:19.069Z,11.50
2022-12-15T14:26:33.925Z,14.00
2022-12-15T14:29:02.659Z,14.70
2022-12-15T14:31:30.087Z,12.90
2022-12-15T14:34:06.351Z,13.70
2022-12-15T14:36:33.176Z,13.10
2022-12-15T14:39:03.415Z,12.20
2022-12-15T14:41:33.394Z,11.40
2022-12-15T14:44:32.179Z,12.90
2022-12-15T14:46:50.448Z,12.20
2022-12-15T14:49:29.489Z,13.50
2022-12-15T14:52:03.031Z,13.90
2022-12-15T14:54:35.640Z,15.10
2022-12-15T14:57:09.608Z,17.90
2022-12-15T14:59:42.300Z,15.00
2022-12-15T15:02:08.700Z,15.30
2022-12-15T15:03:13.112Z,10.80
2022-12-15T15:04:35.225Z,15.70
2022-12-15T15:07:04.880Z,18.60
2022-12-15T15:09:42.946Z,16.00
2022-12-15T15:12:15.687Z,16.60
2022-12-15T15:14:46.130Z,16.50
2022-12-15T15:17:12.523Z,17.40
2022-12-15T15:20:00.933Z,16.60
2022-12-15T15:22:36.563Z,18.00
2022-12-15T15:25:27.908Z,16.70
2022-12-15T15:28:19.273Z,18.40
2022-12-15T15:30:56.315Z,19.00
2022-12-15T15:33:24.476Z,20.60
2022-12-15T15:35:56.203Z,21.20
2022-12-15T15:38:32.327Z,19.50
2022-12-15T15:41:02.013Z,21.10
2022-12-15T15:43:29.474Z,20.40
2022-12-15T15:46:01.555Z,21.00
2022-12-15T15:48:36.334Z,19.00
2022-12-15T15:51:05.158Z,19.10
2022-12-15T15:53:33.951Z,21.00
2022-12-15T15:56:02.586Z,26.20
2022-12-15T15:58:29.376Z,27.70
2022-12-15T16:00:56.048Z,23.60
2022-12-15T16:03:22.811Z,26.30
2022-12-15T16:05:49.993Z,23.70
2022-12-15T16:08:24.629Z,23.10
2022-12-15T16:10:51.044Z,18.50
2022-12-15T16:13:25.577Z,22.30
2022-12-15T16:15:53.093Z,19.60
2022-12-15T16:18:19.994Z,21.00
2022-12-15T16:20:50.304Z,21.10
2022-12-15T16:23:19.790Z,22.60
2022-12-15T16:25:58.334Z,22.60
2022-12-15T16:28:28.153Z,24.10
2022-12-15T16:30:55.435Z,20.20
2022-12-15T16:33:22.114Z,20.40
2022-12-15T16:35:49.875Z,22.90
2022-12-15T16:38:22.647Z,25.80
2022-12-15T16:40:49.159Z,22.70
2022-12-15T16:43:19.720Z,22.80
2022-12-15T16:45:48.959Z,22.80
2022-12-15T16:48:16.338Z,21.80
2022-12-15T16:50:52.122Z,21.00
2022-12-15T16:53:23.214Z,21.50
2022-12-15T16:55:58.649Z,21.10
2022-12-15T16:58:27.473Z,21.20
2022-12-15T17:00:54.487Z,23.00
2022-12-15T17:03:31.675Z,22.80
2022-12-15T17:06:01.187Z,23.40
2022-12-15T17:08:49.600Z,21.10
2022-12-15T17:11:22.329Z,18.80
2022-12-15T17:13:53.835Z,22.30
2022-12-15T17:16:22.618Z,20.70
2022-12-15T17:18:50.456Z,21.40
2022-12-15T17:21:21.149Z,21.20
2022-12-15T17:23:52.377Z,23.00
2022-12-15T17:26:29.726Z,22.00
2022-12-15T17:29:00.330Z,23.80
2022-12-15T17:31:31.531Z,22.70
2022-12-15T17:34:02.376Z,25.90
2022-12-15T17:36:28.957Z,23.70
2022-12-15T17:38:58.199Z,24.30
2022-12-15T17:41:57.516Z,22.90
2022-12-15T17:44:38.653Z,23.30
2022-12-15T17:47:08.030Z,24.00
2022-12-15T17:49:37.497Z,25.60
2022-12-15T17:52:34.331Z,28.10
2022-12-15T17:55:03.098Z,24.00
2022-12-15T17:57:31.865Z,22.90
2022-12-15T17:59:59.544Z,23.20
2022-12-15T18:02:26.112Z,25.20
2022-12-15T18:04:53.968Z,24.80
2022-12-15T18:07:23.331Z,23.40
2022-12-15T18:09:52.008Z,23.00
2022-12-15T18:12:21.378Z,22.10
2022-12-15T18:14:48.082Z,23.40
2022-12-15T18:17:15.282Z,23.90
2022-12-15T18:19:41.695Z,24.70
2022-12-15T18:22:23.417Z,24.30
2022-12-15T18:24:51.629Z,27.70
2022-12-15T18:27:21.995Z,23.70
2022-12-15T18:29:48.434Z,22.50
2022-12-15T18:32:18.840Z,24.20
2022-12-15T18:34:46.562Z,25.20
2022-12-15T18:37:17.969Z,25.70
2022-12-15T18:39:45.155Z,26.50
2022-12-15T18:42:18.251Z,27.90
2022-12-15T18:44:47.778Z,26.20
2022-12-15T18:47:20.498Z,28.80
2022-12-15T18:49:47.438Z,24.40
2022-12-15T18:52:19.881Z,26.10
2022-12-15T18:54:48.034Z,25.70
2022-12-15T18:57:37.793Z,24.40
2022-12-15T19:00:13.330Z,23.40
2022-12-15T19:02:40.923Z,25.90
2022-12-15T19:05:25.548Z,26.30
2022-12-15T19:07:51.999Z,27.70
2022-12-15T19:10:18.461Z,31.90
2022-12-15T19:12:44.847Z,29.30
2022-12-15T19:15:17.862Z,26.30
2022-12-15T19:18:03.033Z,28.30
2022-12-15T19:20:48.120Z,27.20
2022-12-15T19:23:15.724Z,28.80
2022-12-15T19:25:44.108Z,31.40
2022-12-15T19:28:15.543Z,29.10
2022-12-15T19:30:43.525Z,27.40
2022-12-15T19:33:11.533Z,26.20
2022-12-15T19:35:40.147Z,27.40
2022-12-15T19:38:07.681Z,26.50
2022-12-15T19:40:36.515Z,25.20
2022-12-15T19:43:04.272Z,25.00
2022-12-15T19:45:32.661Z,28.90
2022-12-15T19:47:59.862Z,25.20
2022-12-15T19:50:31.532Z,28.40
2022-12-15T19:53:00.882Z,29.00
2022-12-15T19:55:33.289Z,24.10
2022-12-15T19:58:00.874Z,24.80
2022-12-15T20:00:27.451Z,29.60
2022-12-15T20:02:55.263Z,26.60
2022-12-15T20:05:23.262Z,27.40
2022-12-15T20:07:53.835Z,29.30
2022-12-15T20:10:31.703Z,32.70
2022-12-15T20:13:00.179Z,27.30
2022-12-15T20:15:26.690Z,26.90
2022-12-15T20:17:57.282Z,28.20
2022-12-15T20:20:27.023Z,27.10
2022-12-15T20:22:57.147Z,28.00
2022-12-15T20:25:27.030Z,28.70
2022-12-15T20:27:53.573Z,25.60
2022-12-15T20:30:22.585Z,25.80
2022-12-15T20:32:49.341Z,27.70
2022-12-15T20:35:17.737Z,29.10
2022-12-15T20:37:45.089Z,26.80
2022-12-15T20:40:22.853Z,26.60
2022-12-15T20:42:51.410Z,31.10
2022-12-15T20:45:21.295Z,26.80
2022-12-15T20:47:49.798Z,27.50
2022-12-15T20:50:37.499Z,27.00
2022-12-15T20:53:06.273Z,27.80
2022-12-15T20:55:32.974Z,25.70
2022-12-15T20:57:59.362Z,26.30
2022-12-15T21:00:25.738Z,26.20
2022-12-15T21:02:52.457Z,26.10
2022-12-15T21:05:24.748Z,27.60
2022-12-15T21:07:52.008Z,26.70
2022-12-15T21:10:20.441Z,27.70
2022-12-15T21:12:48.890Z,28.70
2022-12-15T21:15:21.561Z,31.50
2022-12-15T21:18:08.869Z,30.20
2022-12-15T21:20:41.100Z,29.00
2022-12-15T21:23:27.385Z,30.70
2022-12-15T21:25:55.224Z,30.90
2022-12-15T21:28:22.770Z,33.20
2022-12-15T21:30:50.092Z,33.70
2022-12-15T21:33:17.468Z,32.60
2022-12-15T21:35:48.223Z,31.70
2022-12-15T21:38:37.046Z,41.50
2022-12-15T21:41:06.157Z,37.50
2022-12-15T21:43:35.642Z,40.00
2022-12-15T21:46:12.112Z,35.40
2022-12-15T21:48:57.244Z,34.00
2022-12-15T21:51:24.393Z,36.10
2022-12-15T21:53:51.236Z,41.00
2022-12-15T21:56:19.557Z,34.40
2022-12-15T21:58:49.014Z,32.70
2022-12-15T22:01:18.829Z,29.30
2022-12-15T22:03:52.884Z,32.10
2022-12-15T22:06:23.802Z,50.30
2022-12-15T22:08:52.423Z,57.30
2022-12-15T22:11:23.057Z,47.30
2022-12-15T22:13:55.134Z,37.00
2022-12-15T22:16:21.888Z,38.50
2022-12-15T22:18:57.143Z,35.70
2022-12-15T22:21:25.166Z,33.30
2022-12-15T22:23:51.957Z,34.60
2022-12-15T22:26:28.814Z,36.80
2022-12-15T22:28:57.069Z,36.10
2022-12-15T22:31:23.561Z,40.30
2022-12-15T22:33:49.986Z,41.10
2022-12-15T22:36:16.368Z,40.40
2022-12-15T22:38:44.959Z,36.10
2022-12-15T22:41:18.661Z,38.50
2022-12-15T22:43:49.780Z,34.20
2022-12-15T22:46:16.311Z,32.20
2022-12-15T22:48:47.491Z,39.80
2022-12-15T22:51:16.324Z,41.50
2022-12-15T22:53:42.784Z,50.10
2022-12-15T22:56:23.315Z,63.20
2022-12-15T22:58:55.190Z,65.60
2022-12-15T23:01:21.811Z,54.60
2022-12-15T23:03:48.364Z,46.30
2022-12-15T23:06:14.887Z,34.10
2022-12-15T23:08:41.448Z,31.10
2022-12-15T23:11:26.525Z,32.10
2022-12-15T23:13:52.950Z,31.50
2022-12-15T23:16:21.774Z,33.90
2022-12-15T23:18:51.703Z,30.70
2022-12-15T23:21:19.301Z,30.20
2022-12-15T23:23:45.918Z,30.20
2022-12-15T23:26:13.130Z,27.60
2022-12-15T23:28:39.896Z,29.60
2022-12-15T23:31:07.236Z,30.20
2022-12-15T23:33:34.626Z,29.40
2022-12-15T23:36:02.180Z,31.20
2022-12-15T23:38:29.375Z,29.70
2022-12-15T23:40:56.684Z,29.40
2022-12-15T23:43:24.558Z,29.00
2022-12-15T23:46:03.151Z,31.10
2022-12-15T23:48:34.930Z,30.20
2022-12-15T23:51:16.212Z,30.20
2022-12-15T23:53:44.087Z,26.00
2022-12-15T23:56:19.743Z,28.80
2022-12-15T23:58:48.966Z,28.20
